createdAt,value
2018-04-08T00:01:39.400Z,12.36
2018-04-08T00:04:07.032Z,12.35
2018-04-08T00:06:34.710Z,12.34
2018-04-08T00:09:02.347Z,12.32
2018-04-08T00:11:29.964Z,12.30
2018-04-08T00:13:57.585Z,12.26
2018-04-08T00:16:25.268Z,12.24
2018-04-08T00:18:52.930Z,12.22
2018-04-08T00:21:20.579Z,12.19
2018-04-08T00:23:48.198Z,12.17
2018-04-08T00:26:15.840Z,12.14
2018-04-08T00:28:43.447Z,12.12
2018-04-08T00:31:11.131Z,12.10
2018-04-08T00:33:38.749Z,12.10
2018-04-08T00:36:06.384Z,12.11
2018-04-08T00:38:34.009Z,12.12
2018-04-08T00:41:01.652Z,12.12
2018-04-08T00:43:29.344Z,12.12
2018-04-08T00:45:56.980Z,12.11
2018-04-08T00:48:24.671Z,12.11
2018-04-08T00:50:52.311Z,12.10
2018-04-08T00:53:19.930Z,12.10
2018-04-08T00:55:47.656Z,12.09
2018-04-08T00:58:15.277Z,12.09
2018-04-08T01:00:42.920Z,12.08
2018-04-08T01:03:10.543Z,12.08
2018-04-08T01:05:39.013Z,12.06
2018-04-08T01:08:06.624Z,12.04
2018-04-08T01:10:34.361Z,12.02
2018-04-08T01:13:02.003Z,12.00
2018-04-08T01:15:29.644Z,11.99
2018-04-08T01:17:57.261Z,11.98
2018-04-08T01:20:24.896Z,11.99
2018-04-08T01:22:52.512Z,12.00
2018-04-08T01:25:20.227Z,12.02
2018-04-08T01:27:47.864Z,12.03
2018-04-08T01:30:15.488Z,12.04
2018-04-08T01:32:43.119Z,12.05
2018-04-08T01:35:10.732Z,12.04
2018-04-08T01:37:38.440Z,12.03
2018-04-08T01:40:10.861Z,12.01
2018-04-08T01:42:38.500Z,12.01
2018-04-08T01:45:06.149Z,12.00
2018-04-08T01:47:33.789Z,11.99
2018-04-08T01:50:01.413Z,11.98
2018-04-08T01:52:29.056Z,11.97
2018-04-08T01:54:56.672Z,11.95
2018-04-08T01:57:24.333Z,11.93
2018-04-08T01:59:51.948Z,11.91
2018-04-08T02:02:19.676Z,11.89
2018-04-08T02:04:47.345Z,11.87
2018-04-08T02:07:15.009Z,11.84
2018-04-08T02:09:42.629Z,11.81
2018-04-08T02:12:10.328Z,11.79
2018-04-08T02:14:37.993Z,11.77
2018-04-08T02:17:05.657Z,11.75
2018-04-08T02:19:33.325Z,11.73
2018-04-08T02:22:01.094Z,11.73
2018-04-08T02:24:28.716Z,11.71
2018-04-08T02:26:56.414Z,11.69
2018-04-08T02:29:24.043Z,11.67
2018-04-08T02:31:51.739Z,11.66
2018-04-08T02:34:19.398Z,11.64
2018-04-08T02:36:47.163Z,11.62
2018-04-08T02:39:14.780Z,11.61
2018-04-08T02:41:42.489Z,11.61
2018-04-08T02:44:10.157Z,11.61
2018-04-08T02:46:37.810Z,11.62
2018-04-08T02:49:05.459Z,11.62
2018-04-08T02:51:33.141Z,11.61
2018-04-08T02:54:00.783Z,11.61
2018-04-08T02:56:28.413Z,11.61
2018-04-08T02:58:56.129Z,11.60
2018-04-08T03:01:23.784Z,11.59
2018-04-08T03:03:51.462Z,11.58
2018-04-08T03:06:19.149Z,11.56
2018-04-08T03:08:46.788Z,11.54
2018-04-08T03:11:14.409Z,11.51
2018-04-08T03:13:42.109Z,11.49
2018-04-08T03:16:09.738Z,11.48
2018-04-08T03:18:37.424Z,11.46
2018-04-08T03:21:05.093Z,11.46
2018-04-08T03:23:32.739Z,11.45
2018-04-08T03:26:00.364Z,11.44
2018-04-08T03:28:28.009Z,11.45
2018-04-08T03:30:55.629Z,11.45
2018-04-08T03:33:23.268Z,11.44
2018-04-08T03:35:50.888Z,11.44
2018-04-08T03:38:18.530Z,11.42
2018-04-08T03:40:46.144Z,11.43
2018-04-08T03:43:13.784Z,11.42
2018-04-08T03:45:41.409Z,11.41
2018-04-08T03:48:09.052Z,11.40
2018-04-08T03:50:36.664Z,11.40
2018-04-08T03:53:04.282Z,11.40
2018-04-08T03:55:31.926Z,11.39
2018-04-08T03:57:59.616Z,11.38
2018-04-08T04:00:27.260Z,11.38
2018-04-08T04:02:54.889Z,11.38
2018-04-08T04:05:22.534Z,11.38
2018-04-08T04:07:50.156Z,11.39
2018-04-08T04:10:17.829Z,11.37
2018-04-08T04:12:45.449Z,11.37
2018-04-08T04:15:13.088Z,11.37
2018-04-08T04:17:40.821Z,11.37
2018-04-08T04:20:20.464Z,11.36
2018-04-08T04:22:59.753Z,11.35
2018-04-08T04:28:30.853Z,11.32
2018-04-08T04:30:58.513Z,11.33
2018-04-08T04:33:26.185Z,11.32
2018-04-08T04:35:53.853Z,11.33
2018-04-08T04:38:21.521Z,11.34
2018-04-08T04:40:49.180Z,11.34
2018-04-08T04:43:16.796Z,11.37
2018-04-08T04:45:44.507Z,11.40
2018-04-08T04:48:12.128Z,11.42
2018-04-08T04:50:39.772Z,11.43
2018-04-08T04:53:07.394Z,11.45
2018-04-08T04:55:35.034Z,11.48
2018-04-08T04:58:02.648Z,11.51
2018-04-08T05:00:30.290Z,11.54
2018-04-08T05:02:57.917Z,11.59
2018-04-08T05:05:25.588Z,11.63
2018-04-08T05:07:53.643Z,11.67
2018-04-08T05:10:21.332Z,11.72
2018-04-08T05:12:49.001Z,11.75
2018-04-08T05:15:16.662Z,11.79
2018-04-08T05:17:44.289Z,11.84
2018-04-08T05:20:11.918Z,11.88
2018-04-08T05:22:39.560Z,11.93
2018-04-08T05:25:07.176Z,11.97
2018-04-08T05:27:34.873Z,12.02
2018-04-08T05:30:02.533Z,12.07
2018-04-08T05:32:30.173Z,12.11
2018-04-08T05:34:57.975Z,12.16
2018-04-08T05:37:25.630Z,12.22
2018-04-08T05:39:53.260Z,12.28
2018-04-08T05:42:20.908Z,12.33
2018-04-08T05:44:48.533Z,12.39
2018-04-08T05:47:16.181Z,12.45
2018-04-08T05:49:43.806Z,12.50
2018-04-08T05:52:11.448Z,12.55
2018-04-08T05:54:39.065Z,12.60
2018-04-08T05:57:06.724Z,12.65
2018-04-08T05:59:34.380Z,12.70
2018-04-08T06:02:02.032Z,12.75
2018-04-08T06:04:29.658Z,12.78
2018-04-08T06:06:57.297Z,12.85
2018-04-08T06:09:24.937Z,12.91
2018-04-08T06:11:52.653Z,12.96
2018-04-08T06:14:20.272Z,13.02
2018-04-08T06:16:47.912Z,13.08
2018-04-08T06:19:15.533Z,13.11
2018-04-08T06:21:43.245Z,13.17
2018-04-08T06:24:10.865Z,13.22
2018-04-08T06:26:38.525Z,13.28
2018-04-08T06:29:06.228Z,13.34
2018-04-08T06:31:33.849Z,13.40
2018-04-08T06:34:01.489Z,13.46
2018-04-08T06:36:29.108Z,13.51
2018-04-08T06:38:56.753Z,13.56
2018-04-08T06:41:24.373Z,13.64
2018-04-08T06:43:52.013Z,13.71
2018-04-08T06:46:19.633Z,13.78
2018-04-08T06:48:47.332Z,13.86
2018-04-08T06:51:14.958Z,13.92
2018-04-08T06:53:42.592Z,13.99
2018-04-08T06:56:10.217Z,14.05
2018-04-08T06:58:37.876Z,14.13
2018-04-08T07:01:05.532Z,14.17
2018-04-08T07:03:33.190Z,14.23
2018-04-08T07:06:00.820Z,14.29
2018-04-08T07:08:28.461Z,14.35
2018-04-08T07:10:56.077Z,14.41
2018-04-08T07:13:23.752Z,14.46
2018-04-08T07:15:51.377Z,14.53
2018-04-08T07:18:19.036Z,14.58
2018-04-08T07:20:46.661Z,14.65
2018-04-08T07:23:14.397Z,14.72
2018-04-08T07:25:42.033Z,14.76
2018-04-08T07:28:09.677Z,14.83
2018-04-08T07:30:37.386Z,14.89
2018-04-08T07:33:05.020Z,14.96
2018-04-08T07:35:32.718Z,15.02
2018-04-08T07:38:00.398Z,15.08
2018-04-08T07:40:28.001Z,15.16
2018-04-08T07:42:55.626Z,15.22
2018-04-08T07:45:23.365Z,15.28
2018-04-08T07:47:51.081Z,15.35
2018-04-08T07:50:18.793Z,15.42
2018-04-08T07:52:46.407Z,15.48
2018-04-08T07:55:14.123Z,15.52
2018-04-08T07:57:41.788Z,15.59
2018-04-08T08:00:09.541Z,15.64
2018-04-08T08:02:37.158Z,15.70
2018-04-08T08:05:04.805Z,15.75
2018-04-08T08:07:32.426Z,15.81
2018-04-08T08:10:00.186Z,15.88
2018-04-08T08:12:27.809Z,15.95
2018-04-08T08:14:55.517Z,16.01
2018-04-08T08:17:23.140Z,16.08
2018-04-08T08:19:50.849Z,16.15
2018-04-08T08:22:18.471Z,16.21
2018-04-08T08:24:46.121Z,16.29
2018-04-08T08:27:13.741Z,16.34
2018-04-08T08:29:41.385Z,16.41
2018-04-08T08:32:09.000Z,16.49
2018-04-08T08:34:36.645Z,16.53
2018-04-08T08:37:04.276Z,16.58
2018-04-08T08:39:31.908Z,16.62
2018-04-08T08:41:59.600Z,16.66
2018-04-08T08:44:27.276Z,16.68
2018-04-08T08:46:54.892Z,16.73
2018-04-08T08:49:22.536Z,16.79
2018-04-08T08:51:50.158Z,16.83
2018-04-08T08:54:17.803Z,16.91
2018-04-08T08:56:45.478Z,16.99
2018-04-08T08:59:13.118Z,17.06
2018-04-08T09:01:40.748Z,17.12
2018-04-08T09:04:08.397Z,17.19
2018-04-08T09:06:36.072Z,17.25
2018-04-08T09:09:03.725Z,17.32
2018-04-08T09:11:31.345Z,17.37
2018-04-08T09:13:58.957Z,17.45
2018-04-08T09:16:26.597Z,17.51
2018-04-08T09:19:04.120Z,17.58
2018-04-08T09:21:31.766Z,17.65
2018-04-08T09:24:04.777Z,17.70
2018-04-08T09:26:32.413Z,17.77
2018-04-08T09:29:00.031Z,17.83
2018-04-08T09:31:27.705Z,17.89
2018-04-08T09:33:55.322Z,17.92
2018-04-08T09:36:23.066Z,17.97
2018-04-08T09:38:50.629Z,18.02
2018-04-08T09:41:18.353Z,18.08
2018-04-08T09:43:45.990Z,18.13
2018-04-08T09:46:13.676Z,18.16
2018-04-08T09:48:41.294Z,18.21
2018-04-08T09:51:08.938Z,18.26
2018-04-08T09:53:36.577Z,18.32
2018-04-08T09:56:04.209Z,18.37
2018-04-08T09:58:32.225Z,18.45
2018-04-08T10:04:07.390Z,18.63
2018-04-08T10:06:35.120Z,18.67
2018-04-08T10:09:02.741Z,18.71
2018-04-08T10:11:30.376Z,18.75
2018-04-08T10:13:58.010Z,18.80
2018-04-08T10:16:25.649Z,18.87
2018-04-08T10:18:53.262Z,18.93
2018-04-08T10:21:20.896Z,19.00
2018-04-08T10:23:48.510Z,19.04
2018-04-08T10:26:16.227Z,19.09
2018-04-08T10:28:43.886Z,19.13
2018-04-08T10:31:11.545Z,19.19
2018-04-08T10:33:39.210Z,19.24
2018-04-08T10:36:06.850Z,19.30
2018-04-08T10:38:34.469Z,19.36
2018-04-08T10:41:02.110Z,19.41
2018-04-08T10:43:29.724Z,19.48
2018-04-08T10:45:57.357Z,19.53
2018-04-08T10:48:24.982Z,19.59
2018-04-08T10:50:52.617Z,19.66
2018-04-08T10:53:20.233Z,19.71
2018-04-08T10:55:47.864Z,19.76
2018-04-08T10:58:15.550Z,19.78
2018-04-08T11:00:43.253Z,19.83
2018-04-08T11:03:10.872Z,19.87
2018-04-08T11:05:38.505Z,19.89
2018-04-08T11:08:06.122Z,19.92
2018-04-08T11:10:33.762Z,19.93
2018-04-08T11:13:01.377Z,19.94
2018-04-08T11:15:29.012Z,20.00
2018-04-08T11:17:56.630Z,20.04
2018-04-08T11:20:24.277Z,20.10
2018-04-08T11:22:51.900Z,20.13
2018-04-08T11:25:19.533Z,20.15
2018-04-08T11:27:47.173Z,20.17
2018-04-08T11:30:14.782Z,20.22
2018-04-08T11:32:42.417Z,20.27
2018-04-08T11:35:10.054Z,20.32
2018-04-08T11:37:37.702Z,20.38
2018-04-08T11:40:05.385Z,20.46
2018-04-08T11:42:33.041Z,20.53
2018-04-08T11:45:00.709Z,20.58
2018-04-08T11:47:28.373Z,20.62
2018-04-08T11:49:55.984Z,20.67
2018-04-08T11:52:23.621Z,20.70
2018-04-08T11:54:51.257Z,20.76
2018-04-08T11:57:18.902Z,20.78
2018-04-08T11:59:46.581Z,20.80
2018-04-08T12:02:14.221Z,20.82
2018-04-08T12:04:41.836Z,20.87
2018-04-08T12:07:09.469Z,20.91
2018-04-08T12:09:37.081Z,20.95
2018-04-08T12:12:04.719Z,21.01
2018-04-08T12:14:32.356Z,21.07
2018-04-08T12:17:00.023Z,21.14
2018-04-08T12:19:27.636Z,21.21
2018-04-08T12:21:55.269Z,21.26
2018-04-08T12:24:22.880Z,21.31
2018-04-08T12:26:52.907Z,21.38
2018-04-08T12:29:20.516Z,21.42
2018-04-08T12:31:48.145Z,21.39
2018-04-08T12:34:15.775Z,21.39
2018-04-08T12:36:43.454Z,21.42
2018-04-08T12:39:11.117Z,21.46
2018-04-08T12:41:38.750Z,21.50
2018-04-08T12:44:06.356Z,21.54
2018-04-08T12:46:34.012Z,21.58
2018-04-08T12:49:01.649Z,21.65
2018-04-08T12:51:29.262Z,21.71
2018-04-08T12:53:56.916Z,21.76
2018-04-08T12:56:24.540Z,21.79
2018-04-08T12:58:52.224Z,21.81
2018-04-08T13:01:19.980Z,21.84
2018-04-08T13:03:47.654Z,21.88
2018-04-08T13:06:15.270Z,21.93
2018-04-08T13:08:42.913Z,21.98
2018-04-08T13:11:10.527Z,22.04
2018-04-08T13:13:38.160Z,22.08
2018-04-08T13:16:05.773Z,22.12
2018-04-08T13:18:33.404Z,22.14
2018-04-08T13:21:01.436Z,22.15
2018-04-08T13:23:29.076Z,22.16
2018-04-08T13:25:56.721Z,22.16
2018-04-08T13:28:24.384Z,22.17
2018-04-08T13:30:52.044Z,22.17
2018-04-08T13:33:19.676Z,22.16
2018-04-08T13:35:47.369Z,22.19
2018-04-08T13:38:15.038Z,22.22
2018-04-08T13:40:42.697Z,22.24
2018-04-08T13:43:10.336Z,22.28
2018-04-08T13:45:37.952Z,22.28
2018-04-08T13:48:05.593Z,22.29
2018-04-08T13:50:33.205Z,22.31
2018-04-08T13:53:00.844Z,22.30
2018-04-08T13:55:28.572Z,22.26
2018-04-08T13:57:56.234Z,22.25
2018-04-08T14:00:23.897Z,22.23
2018-04-08T14:02:51.557Z,22.19
2018-04-08T14:05:19.221Z,22.19
2018-04-08T14:07:46.886Z,22.21
2018-04-08T14:10:14.497Z,22.23
2018-04-08T14:12:42.111Z,22.26
2018-04-08T14:15:09.769Z,22.26
2018-04-08T14:17:37.433Z,22.27
2018-04-08T14:20:05.085Z,22.28
2018-04-08T14:22:32.761Z,22.30
2018-04-08T14:25:00.425Z,22.31
2018-04-08T14:27:28.032Z,22.32
2018-04-08T14:29:55.746Z,22.32
2018-04-08T14:32:23.367Z,22.36
2018-04-08T14:34:51.004Z,22.39
2018-04-08T14:37:18.618Z,22.43
2018-04-08T14:39:46.293Z,22.45
2018-04-08T14:42:13.914Z,22.42
2018-04-08T14:44:41.613Z,22.40
2018-04-08T14:47:09.232Z,22.39
2018-04-08T14:49:36.945Z,22.38
2018-04-08T14:52:04.607Z,22.39
2018-04-08T14:54:32.246Z,22.38
2018-04-08T14:56:59.928Z,22.38
2018-04-08T14:59:27.561Z,22.36
2018-04-08T15:01:55.216Z,22.35
2018-04-08T15:04:22.853Z,22.36
2018-04-08T15:06:50.478Z,22.33
2018-04-08T15:09:18.141Z,22.28
2018-04-08T15:11:45.792Z,22.25
2018-04-08T15:14:13.455Z,22.24
2018-04-08T15:16:41.069Z,22.24
2018-04-08T15:19:08.709Z,22.24
2018-04-08T15:21:36.348Z,22.24
2018-04-08T15:24:03.995Z,22.23
2018-04-08T15:26:31.616Z,22.23
2018-04-08T15:28:59.257Z,22.23
2018-04-08T15:31:26.893Z,22.22
2018-04-08T15:33:54.501Z,22.22
2018-04-08T15:36:22.145Z,22.22
2018-04-08T15:38:49.761Z,22.21
2018-04-08T15:41:17.393Z,22.20
2018-04-08T15:43:45.013Z,22.15
2018-04-08T15:46:12.657Z,22.11
2018-04-08T15:48:40.300Z,22.07
2018-04-08T15:51:08.001Z,22.03
2018-04-08T15:53:35.661Z,21.99
2018-04-08T15:56:03.320Z,21.96
2018-04-08T15:58:30.983Z,21.92
2018-04-08T16:00:58.644Z,21.91
2018-04-08T16:03:26.308Z,21.87
2018-04-08T16:05:53.952Z,21.85
2018-04-08T16:08:21.645Z,21.98
2018-04-08T16:10:49.348Z,22.00
2018-04-08T16:13:16.960Z,21.98
2018-04-08T16:15:44.625Z,21.97
2018-04-08T16:18:12.237Z,21.95
2018-04-08T16:20:39.880Z,21.93
2018-04-08T16:23:07.497Z,21.91
2018-04-08T16:25:35.184Z,21.88
2018-04-08T16:28:02.832Z,21.84
2018-04-08T16:30:30.461Z,21.79
2018-04-08T16:32:58.081Z,21.75
2018-04-08T16:35:25.711Z,21.73
2018-04-08T16:37:53.385Z,21.71
2018-04-08T16:40:21.019Z,21.67
2018-04-08T16:42:48.628Z,21.64
2018-04-08T16:45:16.370Z,21.62
2018-04-08T16:47:44.430Z,21.64
2018-04-08T16:50:12.104Z,21.70
2018-04-08T16:52:39.765Z,21.81
2018-04-08T16:55:07.425Z,21.94
2018-04-08T16:57:35.084Z,22.09
2018-04-08T17:00:02.697Z,22.19
2018-04-08T17:02:30.334Z,22.28
2018-04-08T17:04:57.944Z,22.37
2018-04-08T17:07:25.585Z,22.43
2018-04-08T17:09:53.191Z,22.48
2018-04-08T17:12:20.861Z,22.49
2018-04-08T17:14:48.524Z,22.46
2018-04-08T17:17:16.213Z,22.37
2018-04-08T17:19:43.830Z,22.24
2018-04-08T17:22:11.509Z,22.09
2018-04-08T17:24:39.120Z,21.92
2018-04-08T17:27:06.758Z,21.73
2018-04-08T17:29:34.396Z,21.56
2018-04-08T17:32:02.032Z,21.37
2018-04-08T17:34:29.644Z,21.20
2018-04-08T17:36:57.284Z,21.02
2018-04-08T17:39:24.899Z,20.85
2018-04-08T17:41:52.540Z,20.67
2018-04-08T17:44:20.159Z,20.51
2018-04-08T17:46:47.793Z,20.35
2018-04-08T17:49:15.405Z,20.20
2018-04-08T17:51:43.042Z,20.03
2018-04-08T17:54:10.652Z,19.90
2018-04-08T17:56:38.293Z,19.75
2018-04-08T17:59:05.908Z,19.62
2018-04-08T18:01:33.600Z,19.48
2018-04-08T18:04:01.272Z,19.34
2018-04-08T18:06:28.893Z,19.21
2018-04-08T18:08:56.527Z,19.08
2018-04-08T18:11:24.252Z,18.96
2018-04-08T18:13:51.893Z,18.84
2018-04-08T18:16:19.543Z,18.72
2018-04-08T18:18:47.194Z,18.63
2018-04-08T18:21:14.804Z,18.53
2018-04-08T18:23:42.469Z,18.44
2018-04-08T18:26:10.084Z,18.35
2018-04-08T18:28:37.793Z,18.28
2018-04-08T18:31:05.413Z,18.20
2018-04-08T18:33:33.142Z,18.13
2018-04-08T18:36:00.755Z,18.02
2018-04-08T18:38:28.440Z,17.96
2018-04-08T18:40:56.056Z,17.86
2018-04-08T18:43:23.764Z,17.77
2018-04-08T18:45:51.392Z,17.68
2018-04-08T18:48:19.089Z,17.59
2018-04-08T18:50:46.759Z,17.50
2018-04-08T18:53:14.406Z,17.39
2018-04-08T18:55:42.019Z,17.28
2018-04-08T18:58:09.657Z,17.18
2018-04-08T19:00:37.279Z,17.08
2018-04-08T19:03:04.921Z,16.99
2018-04-08T19:05:32.558Z,16.90
2018-04-08T19:08:00.201Z,16.83
2018-04-08T19:10:27.817Z,16.76
2018-04-08T19:12:55.441Z,16.69
2018-04-08T19:15:23.068Z,16.63
2018-04-08T19:17:56.444Z,16.55
2018-04-08T19:20:24.084Z,16.46
2018-04-08T19:22:51.698Z,16.37
2018-04-08T19:25:19.341Z,16.29
2018-04-08T19:27:46.961Z,16.22
2018-04-08T19:30:20.021Z,16.15
2018-04-08T19:32:47.665Z,16.07
2018-04-08T19:35:15.307Z,16.00
2018-04-08T19:37:42.925Z,15.94
2018-04-08T19:40:10.567Z,15.86
2018-04-08T19:42:38.184Z,15.80
2018-04-08T19:45:05.826Z,15.73
2018-04-08T19:47:33.556Z,15.67
2018-04-08T19:50:01.306Z,15.62
2018-04-08T19:52:28.933Z,15.57
2018-04-08T19:54:56.633Z,15.51
2018-04-08T19:57:24.299Z,15.43
2018-04-08T19:59:51.934Z,15.33
2018-04-08T20:02:19.568Z,15.23
2018-04-08T20:04:47.231Z,15.16
2018-04-08T20:07:15.252Z,15.07
2018-04-08T20:09:42.909Z,14.99
2018-04-08T20:12:10.529Z,14.89
2018-04-08T20:14:38.165Z,14.82
2018-04-08T20:17:05.784Z,14.73
2018-04-08T20:19:33.425Z,14.65
2018-04-08T20:22:01.044Z,14.59
2018-04-08T20:24:28.691Z,14.53
2018-04-08T20:26:56.304Z,14.46
2018-04-08T20:29:23.952Z,14.41
2018-04-08T20:31:51.577Z,14.34
2018-04-08T20:34:19.230Z,14.27
2018-04-08T20:36:46.888Z,14.21
2018-04-08T20:39:14.520Z,14.05
2018-04-08T20:41:42.216Z,14.08
2018-04-08T20:44:09.876Z,14.00
2018-04-08T20:46:37.541Z,13.94
2018-04-08T20:49:05.256Z,13.88
2018-04-08T20:51:32.858Z,13.80
2018-04-08T20:54:00.524Z,13.73
2018-04-08T20:56:28.161Z,13.65
2018-04-08T20:58:55.853Z,13.56
2018-04-08T21:01:23.488Z,13.47
2018-04-08T21:03:51.108Z,13.40
2018-04-08T21:06:18.844Z,13.32
2018-04-08T21:08:46.501Z,13.27
2018-04-08T21:11:14.166Z,13.21
2018-04-08T21:13:41.781Z,13.15
2018-04-08T21:16:09.427Z,13.10
2018-04-08T21:18:37.155Z,13.05
2018-04-08T21:21:04.816Z,12.99
2018-04-08T21:23:32.432Z,12.95
2018-04-08T21:26:00.069Z,12.89
2018-04-08T21:28:27.692Z,12.82
2018-04-08T21:30:55.336Z,12.77
2018-04-08T21:33:23.024Z,12.72
2018-04-08T21:35:50.661Z,12.68
2018-04-08T21:38:18.356Z,12.64
2018-04-08T21:40:46.016Z,12.58
2018-04-08T21:43:13.629Z,12.49
2018-04-08T21:45:41.345Z,12.41
2018-04-08T21:48:08.984Z,12.32
2018-04-08T21:50:36.609Z,12.22
2018-04-08T21:53:04.247Z,12.18
2018-04-08T21:55:31.865Z,12.11
2018-04-08T21:57:59.548Z,12.06
2018-04-08T22:00:27.165Z,12.02
2018-04-08T22:02:54.804Z,11.99
2018-04-08T22:05:22.420Z,11.95
2018-04-08T22:07:50.097Z,11.91
2018-04-08T22:10:17.719Z,11.89
2018-04-08T22:12:45.420Z,11.86
2018-04-08T22:15:13.037Z,11.83
2018-04-08T22:17:40.677Z,11.79
2018-04-08T22:20:08.316Z,11.73
2018-04-08T22:22:35.952Z,11.66
2018-04-08T22:25:03.564Z,11.61
2018-04-08T22:27:31.200Z,11.57
2018-04-08T22:29:58.816Z,11.55
2018-04-08T22:32:26.517Z,11.53
2018-04-08T22:34:54.127Z,11.50
2018-04-08T22:37:21.772Z,11.49
2018-04-08T22:39:49.396Z,11.46
2018-04-08T22:42:17.036Z,11.44
2018-04-08T22:44:44.653Z,11.42
2018-04-08T22:47:12.297Z,11.40
2018-04-08T22:49:39.913Z,11.38
2018-04-08T22:52:07.568Z,11.35
2018-04-08T22:54:35.180Z,11.33
2018-04-08T22:57:02.836Z,11.29
2018-04-08T22:59:30.473Z,11.22
2018-04-08T23:01:58.092Z,11.14
2018-04-08T23:04:25.728Z,11.09
2018-04-08T23:06:53.387Z,11.04
2018-04-08T23:09:21.028Z,11.01
2018-04-08T23:11:48.674Z,10.99
2018-04-08T23:14:16.309Z,10.96
2018-04-08T23:16:43.921Z,10.93
2018-04-08T23:19:11.598Z,10.88
2018-04-08T23:21:39.229Z,10.86
2018-04-08T23:24:06.920Z,10.81
2018-04-08T23:26:34.593Z,10.77
2018-04-08T23:29:02.248Z,10.73
2018-04-08T23:31:29.868Z,10.69
2018-04-08T23:33:57.572Z,10.66
2018-04-08T23:36:25.193Z,10.62
2018-04-08T23:38:52.901Z,10.58
2018-04-08T23:41:20.516Z,10.55
2018-04-08T23:43:48.155Z,10.50
2018-04-08T23:46:15.886Z,10.44
2018-04-08T23:48:43.525Z,10.37
2018-04-08T23:51:11.141Z,10.32
2018-04-08T23:53:38.781Z,10.26
2018-04-08T23:56:06.396Z,10.22
2018-04-08T23:58:34.052Z,10.16
